sensor_id;sensor_type;location;lat;lon;timestamp;P1;durP1;ratioP1;P2;durP2;ratioP2
72194;SDS011;60095;50.180;9.032;2022-11-13T00:00:13;8.85;;;8.00;;
72194;SDS011;60095;50.180;9.032;2022-11-13T00:02:40;28.33;;;8.70;;
72194;SDS011;60095;50.180;9.032;2022-11-13T00:05:06;7.55;;;6.97;;
72194;SDS011;60095;50.180;9.032;2022-11-13T00:07:33;8.63;;;7.80;;
72194;SDS011;60095;50.180;9.032;2022-11-13T00:10:00;10.35;;;5.90;;
72194;SDS011;60095;50.180;9.032;2022-11-13T00:12:27;8.63;;;7.93;;
72194;SDS011;60095;50.180;9.032;2022-11-13T00:14:54;18.25;;;7.15;;
72194;SDS011;60095;50.180;9.032;2022-11-13T00:17:20;6.53;;;5.90;;
72194;SDS011;60095;50.180;9.032;2022-11-13T00:19:46;8.20;;;7.07;;
72194;SDS011;60095;50.180;9.032;2022-11-13T00:22:13;35.97;;;7.90;;
72194;SDS011;60095;50.180;9.032;2022-11-13T00:24:39;10.38;;;6.68;;
72194;SDS011;60095;50.180;9.032;2022-11-13T00:27:07;33.25;;;9.73;;
72194;SDS011;60095;50.180;9.032;2022-11-13T00:29:33;8.10;;;7.40;;
72194;SDS011;60095;50.180;9.032;2022-11-13T00:31:59;23.90;;;6.88;;
72194;SDS011;60095;50.180;9.032;2022-11-13T00:34:26;9.23;;;8.45;;
72194;SDS011;60095;50.180;9.032;2022-11-13T00:36:52;7.65;;;7.00;;
72194;SDS011;60095;50.180;9.032;2022-11-13T00:39:19;9.20;;;8.35;;
72194;SDS011;60095;50.180;9.032;2022-11-13T00:41:45;18.33;;;8.82;;
72194;SDS011;60095;50.180;9.032;2022-11-13T00:44:13;15.98;;;10.73;;
72194;SDS011;60095;50.180;9.032;2022-11-13T00:46:39;10.27;;;9.27;;
72194;SDS011;60095;50.180;9.032;2022-11-13T00:49:06;12.77;;;10.70;;
72194;SDS011;60095;50.180;9.032;2022-11-13T00:51:32;10.63;;;9.60;;
72194;SDS011;60095;50.180;9.032;2022-11-13T00:53:58;11.52;;;8.82;;
72194;SDS011;60095;50.180;9.032;2022-11-13T00:56:25;20.27;;;7.45;;
72194;SDS011;60095;50.180;9.032;2022-11-13T00:58:51;29.42;;;7.90;;
72194;SDS011;60095;50.180;9.032;2022-11-13T01:01:19;6.75;;;6.20;;
72194;SDS011;60095;50.180;9.032;2022-11-13T01:03:46;9.25;;;7.47;;
72194;SDS011;60095;50.180;9.032;2022-11-13T01:06:13;7.60;;;6.38;;
72194;SDS011;60095;50.180;9.032;2022-11-13T01:08:39;8.02;;;7.32;;
72194;SDS011;60095;50.180;9.032;2022-11-13T01:11:07;5.95;;;5.35;;
72194;SDS011;60095;50.180;9.032;2022-11-13T01:13:33;7.97;;;6.68;;
72194;SDS011;60095;50.180;9.032;2022-11-13T01:16:03;7.55;;;6.85;;
72194;SDS011;60095;50.180;9.032;2022-11-13T01:18:31;32.33;;;9.38;;
72194;SDS011;60095;50.180;9.032;2022-11-13T01:21:01;17.73;;;8.00;;
72194;SDS011;60095;50.180;9.032;2022-11-13T01:23:27;7.05;;;6.47;;
72194;SDS011;60095;50.180;9.032;2022-11-13T01:25:53;37.45;;;6.55;;
72194;SDS011;60095;50.180;9.032;2022-11-13T01:28:19;9.27;;;8.35;;
72194;SDS011;60095;50.180;9.032;2022-11-13T01:30:46;9.30;;;7.07;;
72194;SDS011;60095;50.180;9.032;2022-11-13T01:33:12;14.45;;;8.25;;
72194;SDS011;60095;50.180;9.032;2022-11-13T01:35:40;37.80;;;6.80;;
72194;SDS011;60095;50.180;9.032;2022-11-13T01:38:06;31.67;;;6.63;;
72194;SDS011;60095;50.180;9.032;2022-11-13T01:40:32;40.78;;;9.02;;
72194;SDS011;60095;50.180;9.032;2022-11-13T01:43:08;36.60;;;5.72;;
72194;SDS011;60095;50.180;9.032;2022-11-13T01:48:21;22.33;;;6.47;;
72194;SDS011;60095;50.180;9.032;2022-11-13T01:50:49;13.55;;;6.38;;
72194;SDS011;60095;50.180;9.032;2022-11-13T01:53:15;36.63;;;6.30;;
72194;SDS011;60095;50.180;9.032;2022-11-13T01:55:42;47.47;;;6.47;;
72194;SDS011;60095;50.180;9.032;2022-11-13T01:58:08;22.88;;;4.93;;
72194;SDS011;60095;50.180;9.032;2022-11-13T02:00:35;15.73;;;5.35;;
72194;SDS011;60095;50.180;9.032;2022-11-13T02:03:01;30.48;;;6.05;;
72194;SDS011;60095;50.180;9.032;2022-11-13T02:05:28;29.30;;;6.15;;
72194;SDS011;60095;50.180;9.032;2022-11-13T02:07:55;40.38;;;6.97;;
72194;SDS011;60095;50.180;9.032;2022-11-13T02:10:22;49.72;;;7.85;;
72194;SDS011;60095;50.180;9.032;2022-11-13T02:12:49;32.60;;;8.25;;
72194;SDS011;60095;50.180;9.032;2022-11-13T02:15:15;8.57;;;6.45;;
72194;SDS011;60095;50.180;9.032;2022-11-13T02:17:43;5.38;;;4.88;;
72194;SDS011;60095;50.180;9.032;2022-11-13T02:20:10;8.18;;;6.10;;
72194;SDS011;60095;50.180;9.032;2022-11-13T02:22:37;7.32;;;6.68;;
72194;SDS011;60095;50.180;9.032;2022-11-13T02:25:07;6.47;;;4.75;;
72194;SDS011;60095;50.180;9.032;2022-11-13T02:27:35;7.35;;;6.15;;
72194;SDS011;60095;50.180;9.032;2022-11-13T02:30:13;34.40;;;7.20;;
72194;SDS011;60095;50.180;9.032;2022-11-13T02:32:43;21.90;;;7.07;;
72194;SDS011;60095;50.180;9.032;2022-11-13T02:35:10;6.88;;;6.18;;
72194;SDS011;60095;50.180;9.032;2022-11-13T02:37:36;35.65;;;6.32;;
72194;SDS011;60095;50.180;9.032;2022-11-13T02:40:03;12.57;;;4.35;;
72194;SDS011;60095;50.180;9.032;2022-11-13T02:42:30;7.40;;;5.00;;
72194;SDS011;60095;50.180;9.032;2022-11-13T02:44:57;5.82;;;4.97;;
72194;SDS011;60095;50.180;9.032;2022-11-13T02:47:23;5.70;;;5.05;;
72194;SDS011;60095;50.180;9.032;2022-11-13T02:49:49;20.92;;;5.38;;
72194;SDS011;60095;50.180;9.032;2022-11-13T02:52:16;13.02;;;6.90;;
72194;SDS011;60095;50.180;9.032;2022-11-13T02:54:42;7.25;;;6.63;;
72194;SDS011;60095;50.180;9.032;2022-11-13T02:57:08;18.52;;;7.03;;
72194;SDS011;60095;50.180;9.032;2022-11-13T02:59:36;6.43;;;5.47;;
72194;SDS011;60095;50.180;9.032;2022-11-13T03:02:02;46.97;;;10.73;;
72194;SDS011;60095;50.180;9.032;2022-11-13T03:04:29;7.93;;;7.07;;
72194;SDS011;60095;50.180;9.032;2022-11-13T03:06:55;5.95;;;5.35;;
72194;SDS011;60095;50.180;9.032;2022-11-13T03:09:21;6.55;;;5.43;;
72194;SDS011;60095;50.180;9.032;2022-11-13T03:11:48;5.95;;;5.40;;
72194;SDS011;60095;50.180;9.032;2022-11-13T03:14:14;7.57;;;5.05;;
72194;SDS011;60095;50.180;9.032;2022-11-13T03:16:42;5.63;;;4.43;;
72194;SDS011;60095;50.180;9.032;2022-11-13T03:19:08;4.07;;;3.78;;
72194;SDS011;60095;50.180;9.032;2022-11-13T03:21:34;4.85;;;4.18;;
72194;SDS011;60095;50.180;9.032;2022-11-13T03:24:01;8.35;;;5.65;;
72194;SDS011;60095;50.180;9.032;2022-11-13T03:26:27;4.97;;;4.57;;
72194;SDS011;60095;50.180;9.032;2022-11-13T03:28:53;3.45;;;3.17;;
72194;SDS011;60095;50.180;9.032;2022-11-13T03:31:20;5.03;;;4.63;;
72194;SDS011;60095;50.180;9.032;2022-11-13T03:33:47;5.30;;;4.80;;
72194;SDS011;60095;50.180;9.032;2022-11-13T03:36:14;6.63;;;4.00;;
72194;SDS011;60095;50.180;9.032;2022-11-13T03:38:40;29.45;;;7.53;;
72194;SDS011;60095;50.180;9.032;2022-11-13T03:41:06;6.55;;;5.85;;
72194;SDS011;60095;50.180;9.032;2022-11-13T03:43:33;4.63;;;3.80;;
72194;SDS011;60095;50.180;9.032;2022-11-13T03:45:59;4.75;;;4.35;;
72194;SDS011;60095;50.180;9.032;2022-11-13T03:48:25;4.57;;;4.18;;
72194;SDS011;60095;50.180;9.032;2022-11-13T03:50:53;7.13;;;5.35;;
72194;SDS011;60095;50.180;9.032;2022-11-13T03:53:20;5.88;;;5.32;;
72194;SDS011;60095;50.180;9.032;2022-11-13T03:55:46;6.20;;;4.93;;
72194;SDS011;60095;50.180;9.032;2022-11-13T03:58:13;4.78;;;4.30;;
72194;SDS011;60095;50.180;9.032;2022-11-13T04:00:39;3.95;;;3.63;;
72194;SDS011;60095;50.180;9.032;2022-11-13T04:03:06;5.38;;;3.50;;
72194;SDS011;60095;50.180;9.032;2022-11-13T04:05:33;6.05;;;5.18;;
72194;SDS011;60095;50.180;9.032;2022-11-13T04:08:00;3.80;;;3.17;;
72194;SDS011;60095;50.180;9.032;2022-11-13T04:10:27;6.05;;;4.38;;
72194;SDS011;60095;50.180;9.032;2022-11-13T04:12:53;5.53;;;5.03;;
72194;SDS011;60095;50.180;9.032;2022-11-13T04:15:19;5.28;;;4.78;;
72194;SDS011;60095;50.180;9.032;2022-11-13T04:17:47;6.45;;;4.05;;
72194;SDS011;60095;50.180;9.032;2022-11-13T04:20:13;5.05;;;3.97;;
72194;SDS011;60095;50.180;9.032;2022-11-13T04:22:40;3.20;;;2.90;;
72194;SDS011;60095;50.180;9.032;2022-11-13T04:25:08;4.05;;;3.72;;
72194;SDS011;60095;50.180;9.032;2022-11-13T04:27:34;4.35;;;3.40;;
72194;SDS011;60095;50.180;9.032;2022-11-13T04:30:00;3.75;;;3.40;;
72194;SDS011;60095;50.180;9.032;2022-11-13T04:32:27;5.22;;;4.72;;
72194;SDS011;60095;50.180;9.032;2022-11-13T04:34:53;4.80;;;4.40;;
72194;SDS011;60095;50.180;9.032;2022-11-13T04:37:19;4.20;;;3.80;;
72194;SDS011;60095;50.180;9.032;2022-11-13T04:39:46;4.80;;;3.95;;
72194;SDS011;60095;50.180;9.032;2022-11-13T04:42:13;5.85;;;4.63;;
72194;SDS011;60095;50.180;9.032;2022-11-13T04:44:57;5.85;;;3.22;;
72194;SDS011;60095;50.180;9.032;2022-11-13T04:47:24;6.95;;;4.00;;
72194;SDS011;60095;50.180;9.032;2022-11-13T04:49:50;2.70;;;2.50;;
72194;SDS011;60095;50.180;9.032;2022-11-13T04:52:16;12.32;;;4.68;;
72194;SDS011;60095;50.180;9.032;2022-11-13T04:54:43;5.50;;;4.00;;
72194;SDS011;60095;50.180;9.032;2022-11-13T04:57:09;3.47;;;3.17;;
72194;SDS011;60095;50.180;9.032;2022-11-13T04:59:37;5.13;;;4.20;;
72194;SDS011;60095;50.180;9.032;2022-11-13T05:02:03;4.40;;;3.60;;
72194;SDS011;60095;50.180;9.032;2022-11-13T05:04:29;4.82;;;4.43;;
72194;SDS011;60095;50.180;9.032;2022-11-13T05:06:56;4.00;;;3.70;;
72194;SDS011;60095;50.180;9.032;2022-11-13T05:09:22;2.97;;;2.67;;
72194;SDS011;60095;50.180;9.032;2022-11-13T05:11:48;7.80;;;5.10;;
72194;SDS011;60095;50.180;9.032;2022-11-13T05:14:15;4.43;;;3.65;;
72194;SDS011;60095;50.180;9.032;2022-11-13T05:16:42;4.75;;;4.13;;
72194;SDS011;60095;50.180;9.032;2022-11-13T05:19:09;5.00;;;3.95;;
72194;SDS011;60095;50.180;9.032;2022-11-13T05:21:35;4.55;;;4.15;;
72194;SDS011;60095;50.180;9.032;2022-11-13T05:24:02;4.68;;;4.28;;
72194;SDS011;60095;50.180;9.032;2022-11-13T05:26:29;20.63;;;4.90;;
72194;SDS011;60095;50.180;9.032;2022-11-13T05:28:55;5.97;;;3.67;;
72194;SDS011;60095;50.180;9.032;2022-11-13T05:31:21;4.47;;;4.07;;
72194;SDS011;60095;50.180;9.032;2022-11-13T05:33:49;4.35;;;4.05;;
72194;SDS011;60095;50.180;9.032;2022-11-13T05:36:16;29.23;;;3.42;;
72194;SDS011;60095;50.180;9.032;2022-11-13T05:38:42;18.27;;;3.88;;
72194;SDS011;60095;50.180;9.032;2022-11-13T05:41:09;4.80;;;4.05;;
72194;SDS011;60095;50.180;9.032;2022-11-13T05:43:36;2.72;;;2.33;;
72194;SDS011;60095;50.180;9.032;2022-11-13T05:46:04;4.70;;;4.28;;
72194;SDS011;60095;50.180;9.032;2022-11-13T05:48:30;4.80;;;4.30;;
72194;SDS011;60095;50.180;9.032;2022-11-13T05:51:02;8.15;;;4.13;;
72194;SDS011;60095;50.180;9.032;2022-11-13T05:53:28;4.50;;;3.85;;
72194;SDS011;60095;50.180;9.032;2022-11-13T05:55:58;4.28;;;3.70;;
72194;SDS011;60095;50.180;9.032;2022-11-13T05:58:24;5.60;;;3.72;;
72194;SDS011;60095;50.180;9.032;2022-11-13T06:00:50;3.55;;;3.25;;
72194;SDS011;60095;50.180;9.032;2022-11-13T06:03:17;5.28;;;4.40;;
72194;SDS011;60095;50.180;9.032;2022-11-13T06:05:43;4.25;;;2.75;;
72194;SDS011;60095;50.180;9.032;2022-11-13T06:08:11;3.05;;;2.85;;
72194;SDS011;60095;50.180;9.032;2022-11-13T06:10:37;6.50;;;4.00;;
72194;SDS011;60095;50.180;9.032;2022-11-13T06:13:03;3.78;;;3.47;;
72194;SDS011;60095;50.180;9.032;2022-11-13T06:15:30;3.67;;;3.42;;
72194;SDS011;60095;50.180;9.032;2022-11-13T06:17:56;3.17;;;2.92;;
72194;SDS011;60095;50.180;9.032;2022-11-13T06:20:22;4.15;;;2.92;;
72194;SDS011;60095;50.180;9.032;2022-11-13T06:22:49;4.15;;;3.85;;
72194;SDS011;60095;50.180;9.032;2022-11-13T06:25:16;4.57;;;4.20;;
72194;SDS011;60095;50.180;9.032;2022-11-13T06:27:43;5.10;;;4.70;;
72194;SDS011;60095;50.180;9.032;2022-11-13T06:30:09;3.38;;;3.08;;
72194;SDS011;60095;50.180;9.032;2022-11-13T06:32:36;3.80;;;3.50;;
72194;SDS011;60095;50.180;9.032;2022-11-13T06:35:02;3.33;;;3.05;;
72194;SDS011;60095;50.180;9.032;2022-11-13T06:37:29;5.88;;;3.03;;
72194;SDS011;60095;50.180;9.032;2022-11-13T06:39:55;6.50;;;4.57;;
72194;SDS011;60095;50.180;9.032;2022-11-13T06:42:23;3.22;;;3.03;;
72194;SDS011;60095;50.180;9.032;2022-11-13T06:44:49;5.22;;;3.80;;
72194;SDS011;60095;50.180;9.032;2022-11-13T06:47:16;4.68;;;4.28;;
72194;SDS011;60095;50.180;9.032;2022-11-13T06:49:42;3.60;;;3.30;;
72194;SDS011;60095;50.180;9.032;2022-11-13T06:52:08;7.90;;;3.90;;
72194;SDS011;60095;50.180;9.032;2022-11-13T06:54:35;4.40;;;3.08;;
72194;SDS011;60095;50.180;9.032;2022-11-13T06:57:01;3.38;;;3.10;;
72194;SDS011;60095;50.180;9.032;2022-11-13T06:59:29;4.90;;;4.50;;
72194;SDS011;60095;50.180;9.032;2022-11-13T07:01:55;4.70;;;3.40;;
72194;SDS011;60095;50.180;9.032;2022-11-13T07:04:21;3.65;;;3.30;;
72194;SDS011;60095;50.180;9.032;2022-11-13T07:06:48;4.40;;;3.90;;
72194;SDS011;60095;50.180;9.032;2022-11-13T07:09:14;3.38;;;2.95;;
72194;SDS011;60095;50.180;9.032;2022-11-13T07:11:40;4.65;;;3.67;;
72194;SDS011;60095;50.180;9.032;2022-11-13T07:14:08;4.50;;;4.10;;
72194;SDS011;60095;50.180;9.032;2022-11-13T07:16:35;4.45;;;3.78;;
72194;SDS011;60095;50.180;9.032;2022-11-13T07:19:02;4.75;;;4.13;;
72194;SDS011;60095;50.180;9.032;2022-11-13T07:21:28;5.05;;;4.60;;
72194;SDS011;60095;50.180;9.032;2022-11-13T07:23:54;5.40;;;4.90;;
72194;SDS011;60095;50.180;9.032;2022-11-13T07:26:21;7.00;;;6.30;;
72194;SDS011;60095;50.180;9.032;2022-11-13T07:28:47;8.35;;;7.65;;
72194;SDS011;60095;50.180;9.032;2022-11-13T07:31:15;15.65;;;11.68;;
72194;SDS011;60095;50.180;9.032;2022-11-13T07:33:43;17.73;;;12.38;;
72194;SDS011;60095;50.180;9.032;2022-11-13T07:36:09;64.78;;;12.38;;
72194;SDS011;60095;50.180;9.032;2022-11-13T07:38:36;20.65;;;10.55;;
72194;SDS011;60095;50.180;9.032;2022-11-13T07:41:02;61.47;;;9.40;;
72194;SDS011;60095;50.180;9.032;2022-11-13T07:43:29;8.00;;;7.35;;
72194;SDS011;60095;50.180;9.032;2022-11-13T07:45:56;31.17;;;7.50;;
72194;SDS011;60095;50.180;9.032;2022-11-13T07:48:23;14.82;;;7.68;;
72194;SDS011;60095;50.180;9.032;2022-11-13T07:50:50;12.40;;;6.70;;
72194;SDS011;60095;50.180;9.032;2022-11-13T07:53:17;12.27;;;7.28;;
72194;SDS011;60095;50.180;9.032;2022-11-13T07:55:43;14.50;;;6.63;;
72194;SDS011;60095;50.180;9.032;2022-11-13T07:58:10;6.03;;;5.25;;
72194;SDS011;60095;50.180;9.032;2022-11-13T08:00:36;7.82;;;5.60;;
72194;SDS011;60095;50.180;9.032;2022-11-13T08:03:05;8.68;;;6.80;;
72194;SDS011;60095;50.180;9.032;2022-11-13T08:05:32;7.78;;;6.18;;
72194;SDS011;60095;50.180;9.032;2022-11-13T08:08:00;16.10;;;6.50;;
72194;SDS011;60095;50.180;9.032;2022-11-13T08:10:27;7.47;;;6.68;;
72194;SDS011;60095;50.180;9.032;2022-11-13T08:12:57;7.93;;;6.63;;
72194;SDS011;60095;50.180;9.032;2022-11-13T08:15:23;5.55;;;5.13;;
72194;SDS011;60095;50.180;9.032;2022-11-13T08:17:52;6.03;;;5.43;;
72194;SDS011;60095;50.180;9.032;2022-11-13T08:20:18;7.40;;;5.35;;
72194;SDS011;60095;50.180;9.032;2022-11-13T08:22:45;8.75;;;7.05;;
72194;SDS011;60095;50.180;9.032;2022-11-13T08:25:12;7.05;;;6.15;;
72194;SDS011;60095;50.180;9.032;2022-11-13T08:27:39;5.53;;;4.93;;
72194;SDS011;60095;50.180;9.032;2022-11-13T08:30:05;6.53;;;5.93;;
72194;SDS011;60095;50.180;9.032;2022-11-13T08:32:32;7.90;;;7.10;;
72194;SDS011;60095;50.180;9.032;2022-11-13T08:34:58;6.55;;;5.72;;
72194;SDS011;60095;50.180;9.032;2022-11-13T08:37:25;7.70;;;6.53;;
72194;SDS011;60095;50.180;9.032;2022-11-13T08:39:51;8.63;;;6.55;;
72194;SDS011;60095;50.180;9.032;2022-11-13T08:42:19;15.90;;;6.18;;
72194;SDS011;60095;50.180;9.032;2022-11-13T08:44:45;6.22;;;5.40;;
72194;SDS011;60095;50.180;9.032;2022-11-13T08:47:11;13.95;;;8.38;;
72194;SDS011;60095;50.180;9.032;2022-11-13T08:49:38;8.27;;;7.40;;
72194;SDS011;60095;50.180;9.032;2022-11-13T08:52:04;10.98;;;9.32;;
72194;SDS011;60095;50.180;9.032;2022-11-13T08:54:30;10.07;;;9.10;;
72194;SDS011;60095;50.180;9.032;2022-11-13T08:56:57;10.13;;;8.15;;
72194;SDS011;60095;50.180;9.032;2022-11-13T08:59:24;9.65;;;8.80;;
72194;SDS011;60095;50.180;9.032;2022-11-13T09:01:51;8.82;;;8.02;;
72194;SDS011;60095;50.180;9.032;2022-11-13T09:04:22;10.95;;;9.98;;
72194;SDS011;60095;50.180;9.032;2022-11-13T09:06:48;9.27;;;8.20;;
72194;SDS011;60095;50.180;9.032;2022-11-13T09:09:15;11.05;;;10.05;;
72194;SDS011;60095;50.180;9.032;2022-11-13T09:11:41;11.68;;;10.57;;
72194;SDS011;60095;50.180;9.032;2022-11-13T09:14:07;13.52;;;11.23;;
72194;SDS011;60095;50.180;9.032;2022-11-13T09:16:35;13.23;;;12.00;;
72194;SDS011;60095;50.180;9.032;2022-11-13T09:19:02;10.45;;;9.52;;
72194;SDS011;60095;50.180;9.032;2022-11-13T09:21:28;10.95;;;9.77;;
72194;SDS011;60095;50.180;9.032;2022-11-13T09:23:54;13.02;;;11.18;;
72194;SDS011;60095;50.180;9.032;2022-11-13T09:26:21;12.13;;;11.07;;
72194;SDS011;60095;50.180;9.032;2022-11-13T09:28:47;9.95;;;8.88;;
72194;SDS011;60095;50.180;9.032;2022-11-13T09:31:13;10.57;;;8.27;;
72194;SDS011;60095;50.180;9.032;2022-11-13T09:33:41;10.40;;;9.35;;
72194;SDS011;60095;50.180;9.032;2022-11-13T09:36:11;13.38;;;5.90;;
72194;SDS011;60095;50.180;9.032;2022-11-13T09:38:38;8.77;;;7.97;;
72194;SDS011;60095;50.180;9.032;2022-11-13T09:41:05;6.05;;;5.45;;
72194;SDS011;60095;50.180;9.032;2022-11-13T09:43:35;8.88;;;7.97;;
72194;SDS011;60095;50.180;9.032;2022-11-13T09:46:03;6.22;;;5.63;;
72194;SDS011;60095;50.180;9.032;2022-11-13T09:48:32;6.38;;;4.47;;
72194;SDS011;60095;50.180;9.032;2022-11-13T09:51:03;8.30;;;7.28;;
72194;SDS011;60095;50.180;9.032;2022-11-13T09:53:32;8.00;;;5.93;;
72194;SDS011;60095;50.180;9.032;2022-11-13T09:56:01;10.85;;;6.22;;
72194;SDS011;60095;50.180;9.032;2022-11-13T09:58:30;11.65;;;6.70;;
72194;SDS011;60095;50.180;9.032;2022-11-13T10:00:59;6.32;;;5.72;;
72194;SDS011;60095;50.180;9.032;2022-11-13T10:03:29;5.78;;;5.22;;
72194;SDS011;60095;50.180;9.032;2022-11-13T10:05:58;6.88;;;5.80;;
72194;SDS011;60095;50.180;9.032;2022-11-13T10:08:28;5.45;;;5.03;;
72194;SDS011;60095;50.180;9.032;2022-11-13T10:10:57;6.47;;;5.88;;
72194;SDS011;60095;50.180;9.032;2022-11-13T10:13:25;5.55;;;4.95;;
72194;SDS011;60095;50.180;9.032;2022-11-13T10:15:54;6.82;;;6.13;;
72194;SDS011;60095;50.180;9.032;2022-11-13T10:18:22;6.57;;;5.97;;
72194;SDS011;60095;50.180;9.032;2022-11-13T10:20:51;5.30;;;4.88;;
72194;SDS011;60095;50.180;9.032;2022-11-13T10:23:23;11.35;;;5.25;;
72194;SDS011;60095;50.180;9.032;2022-11-13T10:25:52;5.85;;;5.35;;
72194;SDS011;60095;50.180;9.032;2022-11-13T10:28:22;8.55;;;5.88;;
72194;SDS011;60095;50.180;9.032;2022-11-13T10:30:49;9.80;;;5.45;;
72194;SDS011;60095;50.180;9.032;2022-11-13T10:33:16;6.30;;;5.75;;
72194;SDS011;60095;50.180;9.032;2022-11-13T10:35:44;7.22;;;5.53;;
72194;SDS011;60095;50.180;9.032;2022-11-13T10:38:15;5.40;;;4.88;;
72194;SDS011;60095;50.180;9.032;2022-11-13T10:40:43;7.22;;;6.53;;
72194;SDS011;60095;50.180;9.032;2022-11-13T10:43:14;9.32;;;5.63;;
72194;SDS011;60095;50.180;9.032;2022-11-13T10:45:41;5.88;;;5.20;;
72194;SDS011;60095;50.180;9.032;2022-11-13T10:48:17;5.05;;;4.30;;
72194;SDS011;60095;50.180;9.032;2022-11-13T10:50:51;8.15;;;5.93;;
72194;SDS011;60095;50.180;9.032;2022-11-13T10:53:17;3.10;;;2.80;;
72194;SDS011;60095;50.180;9.032;2022-11-13T10:55:44;4.85;;;4.45;;
72194;SDS011;60095;50.180;9.032;2022-11-13T10:58:13;6.30;;;4.10;;
72194;SDS011;60095;50.180;9.032;2022-11-13T11:00:40;4.38;;;3.97;;
72194;SDS011;60095;50.180;9.032;2022-11-13T11:03:12;4.13;;;3.72;;
72194;SDS011;60095;50.180;9.032;2022-11-13T11:05:38;3.80;;;3.30;;
72194;SDS011;60095;50.180;9.032;2022-11-13T11:08:07;4.25;;;3.80;;
72194;SDS011;60095;50.180;9.032;2022-11-13T11:10:34;7.30;;;3.80;;
72194;SDS011;60095;50.180;9.032;2022-11-13T11:13:01;4.70;;;3.13;;
72194;SDS011;60095;50.180;9.032;2022-11-13T11:15:31;2.72;;;2.53;;
72194;SDS011;60095;50.180;9.032;2022-11-13T11:18:01;6.00;;;4.55;;
72194;SDS011;60095;50.180;9.032;2022-11-13T11:20:32;5.05;;;4.50;;
72194;SDS011;60095;50.180;9.032;2022-11-13T11:23:03;7.50;;;4.97;;
72194;SDS011;60095;50.180;9.032;2022-11-13T11:25:32;5.45;;;3.83;;
72194;SDS011;60095;50.180;9.032;2022-11-13T11:28:01;4.65;;;4.20;;
72194;SDS011;60095;50.180;9.032;2022-11-13T11:30:33;10.48;;;5.13;;
72194;SDS011;60095;50.180;9.032;2022-11-13T11:33:03;5.85;;;4.85;;
72194;SDS011;60095;50.180;9.032;2022-11-13T11:35:36;10.65;;;4.72;;
72194;SDS011;60095;50.180;9.032;2022-11-13T11:38:04;4.78;;;3.20;;
72194;SDS011;60095;50.180;9.032;2022-11-13T11:40:35;3.53;;;3.03;;
72194;SDS011;60095;50.180;9.032;2022-11-13T11:43:04;3.28;;;2.92;;
72194;SDS011;60095;50.180;9.032;2022-11-13T11:45:35;3.70;;;3.22;;
72194;SDS011;60095;50.180;9.032;2022-11-13T11:48:02;3.95;;;3.58;;
72194;SDS011;60095;50.180;9.032;2022-11-13T11:50:34;5.95;;;4.18;;
72194;SDS011;60095;50.180;9.032;2022-11-13T11:53:03;3.67;;;2.97;;
72194;SDS011;60095;50.180;9.032;2022-11-13T11:55:42;4.47;;;4.07;;
72194;SDS011;60095;50.180;9.032;2022-11-13T11:58:15;5.22;;;4.70;;
72194;SDS011;60095;50.180;9.032;2022-11-13T12:00:47;7.00;;;4.93;;
72194;SDS011;60095;50.180;9.032;2022-11-13T12:06:02;4.95;;;3.83;;
72194;SDS011;60095;50.180;9.032;2022-11-13T12:08:33;4.93;;;4.00;;
72194;SDS011;60095;50.180;9.032;2022-11-13T12:11:02;6.38;;;4.30;;
72194;SDS011;60095;50.180;9.032;2022-11-13T12:13:32;13.52;;;4.70;;
72194;SDS011;60095;50.180;9.032;2022-11-13T12:16:05;2.83;;;2.38;;
72194;SDS011;60095;50.180;9.032;2022-11-13T12:18:36;3.90;;;3.53;;
72194;SDS011;60095;50.180;9.032;2022-11-13T12:21:13;4.25;;;3.67;;
72194;SDS011;60095;50.180;9.032;2022-11-13T12:23:48;4.97;;;3.78;;
72194;SDS011;60095;50.180;9.032;2022-11-13T12:26:19;3.65;;;3.28;;
72194;SDS011;60095;50.180;9.032;2022-11-13T12:28:49;4.93;;;4.03;;
72194;SDS011;60095;50.180;9.032;2022-11-13T12:31:19;19.25;;;5.28;;
72194;SDS011;60095;50.180;9.032;2022-11-13T12:33:50;5.53;;;3.92;;
72194;SDS011;60095;50.180;9.032;2022-11-13T12:36:18;4.68;;;3.55;;
72194;SDS011;60095;50.180;9.032;2022-11-13T12:38:46;2.90;;;2.55;;
72194;SDS011;60095;50.180;9.032;2022-11-13T12:41:15;5.30;;;3.53;;
72194;SDS011;60095;50.180;9.032;2022-11-13T12:46:13;3.38;;;2.95;;
72194;SDS011;60095;50.180;9.032;2022-11-13T12:48:42;4.18;;;3.53;;
72194;SDS011;60095;50.180;9.032;2022-11-13T12:51:10;4.30;;;3.90;;
72194;SDS011;60095;50.180;9.032;2022-11-13T12:53:44;2.97;;;2.78;;
72194;SDS011;60095;50.180;9.032;2022-11-13T12:58:37;3.13;;;2.83;;
72194;SDS011;60095;50.180;9.032;2022-11-13T13:01:04;3.35;;;2.83;;
72194;SDS011;60095;50.180;9.032;2022-11-13T13:03:37;4.68;;;3.03;;
72194;SDS011;60095;50.180;9.032;2022-11-13T13:06:13;4.80;;;3.90;;
72194;SDS011;60095;50.180;9.032;2022-11-13T13:08:53;3.30;;;2.63;;
72194;SDS011;60095;50.180;9.032;2022-11-13T13:11:23;3.80;;;2.38;;
72194;SDS011;60095;50.180;9.032;2022-11-13T13:13:54;3.70;;;2.63;;
72194;SDS011;60095;50.180;9.032;2022-11-13T13:16:26;4.28;;;2.00;;
72194;SDS011;60095;50.180;9.032;2022-11-13T13:19:04;3.67;;;2.95;;
72194;SDS011;60095;50.180;9.032;2022-11-13T13:21:39;3.13;;;1.77;;
72194;SDS011;60095;50.180;9.032;2022-11-13T13:24:06;3.30;;;2.53;;
72194;SDS011;60095;50.180;9.032;2022-11-13T13:26:42;1.67;;;1.55;;
72194;SDS011;60095;50.180;9.032;2022-11-13T13:29:13;3.13;;;2.25;;
72194;SDS011;60095;50.180;9.032;2022-11-13T13:31:43;2.63;;;1.92;;
72194;SDS011;60095;50.180;9.032;2022-11-13T13:34:17;3.28;;;2.42;;
72194;SDS011;60095;50.180;9.032;2022-11-13T13:36:49;3.10;;;1.73;;
72194;SDS011;60095;50.180;9.032;2022-11-13T13:39:21;5.88;;;2.05;;
72194;SDS011;60095;50.180;9.032;2022-11-13T13:41:54;2.85;;;2.65;;
72194;SDS011;60095;50.180;9.032;2022-11-13T13:44:44;1.75;;;1.40;;
72194;SDS011;60095;50.180;9.032;2022-11-13T13:47:15;4.90;;;2.72;;
72194;SDS011;60095;50.180;9.032;2022-11-13T13:49:44;3.47;;;2.65;;
72194;SDS011;60095;50.180;9.032;2022-11-13T13:52:12;2.72;;;2.00;;
72194;SDS011;60095;50.180;9.032;2022-11-13T13:54:39;3.95;;;2.88;;
72194;SDS011;60095;50.180;9.032;2022-11-13T13:57:08;2.13;;;1.92;;
72194;SDS011;60095;50.180;9.032;2022-11-13T13:59:36;7.20;;;2.47;;
72194;SDS011;60095;50.180;9.032;2022-11-13T14:02:03;2.95;;;2.10;;
72194;SDS011;60095;50.180;9.032;2022-11-13T14:04:41;4.10;;;2.78;;
72194;SDS011;60095;50.180;9.032;2022-11-13T14:07:21;6.95;;;1.83;;
72194;SDS011;60095;50.180;9.032;2022-11-13T14:09:47;4.82;;;2.83;;
72194;SDS011;60095;50.180;9.032;2022-11-13T14:12:17;5.28;;;2.72;;
72194;SDS011;60095;50.180;9.032;2022-11-13T14:14:44;2.53;;;2.00;;
72194;SDS011;60095;50.180;9.032;2022-11-13T14:17:10;3.35;;;1.60;;
72194;SDS011;60095;50.180;9.032;2022-11-13T14:19:37;3.70;;;2.70;;
72194;SDS011;60095;50.180;9.032;2022-11-13T14:22:04;3.28;;;2.65;;
72194;SDS011;60095;50.180;9.032;2022-11-13T14:24:33;2.47;;;1.67;;
72194;SDS011;60095;50.180;9.032;2022-11-13T14:27:01;2.17;;;1.60;;
72194;SDS011;60095;50.180;9.032;2022-11-13T14:29:31;2.75;;;2.42;;
72194;SDS011;60095;50.180;9.032;2022-11-13T14:32:02;2.40;;;1.65;;
72194;SDS011;60095;50.180;9.032;2022-11-13T14:34:29;1.42;;;1.30;;
72194;SDS011;60095;50.180;9.032;2022-11-13T14:36:56;2.42;;;1.52;;
72194;SDS011;60095;50.180;9.032;2022-11-13T14:39:30;3.95;;;2.50;;
72194;SDS011;60095;50.180;9.032;2022-11-13T14:41:58;5.03;;;2.70;;
72194;SDS011;60095;50.180;9.032;2022-11-13T14:44:25;3.97;;;2.45;;
72194;SDS011;60095;50.180;9.032;2022-11-13T14:46:57;3.17;;;2.33;;
72194;SDS011;60095;50.180;9.032;2022-11-13T14:49:27;3.40;;;3.10;;
72194;SDS011;60095;50.180;9.032;2022-11-13T14:51:54;2.63;;;2.25;;
72194;SDS011;60095;50.180;9.032;2022-11-13T14:54:28;11.93;;;2.83;;
72194;SDS011;60095;50.180;9.032;2022-11-13T14:56:54;5.57;;;3.92;;